Terminal Aerodrome Forecast
Issued by NWS Louisville, KY

Current Version | Previous Version | Text Only | Print | Product List | Glossary On
Versions: 1 2 3 4 5 6 7 8 9 10 11 12 13 14 15 16 17
000
FTUS43 KLMK 212300
TAFBWG
TAF
KBWG 212320Z 2200/2224 01006KT P6SM FEW050
     FM220300 01003KT P6SM SKC
     FM221400 02006KT P6SM FEW035=

USA.gov is the U.S. government's official web portal to all federal, state and local government web resources and services.